Time;durP1;ratioP1;P1;durP2;ratioP2;P2;SDS_P1;SDS_P2;PMS_P1;PMS_P2;Temp;Humidity;BMP_temperature;BMP_pressure;BME280_temperature;BME280_humidity;BME280_pressure;Samples;Min_cycle;Max_cycle;Signal;HPM_P1;HPM_P2
2022/04/07 00:01:32;;;;;;;18.38;2.60;;;;;;;7.60;100.00;97731.16;6227878;23;20016;-77
2022/04/07 00:04:00;;;;;;;19.75;2.72;;;;;;;7.60;100.00;97734.69;6230894;23;20022;-77
2022/04/07 00:06:28;;;;;;;19.10;2.63;;;;;;;7.60;100.00;97729.25;6203910;23;20011;-77
2022/04/07 00:09:03;;;;;;;;;;;;;;;;;;;;;
2022/04/07 00:11:40;;;;;;;37.95;3.88;;;;;;;7.35;100.00;97687.22;6256052;23;20028;-77
2022/04/07 00:14:08;;;;;;;23.85;3.05;;;;;;;7.45;100.00;97686.16;6241348;23;20030;-76
2022/04/07 00:16:45;;;;;;;30.70;2.92;;;;;;;7.58;100.00;97693.41;6255907;23;20005;-76
2022/04/07 00:19:11;;;;;;;26.33;2.95;;;;;;;7.67;100.00;97683.34;6243251;23;20004;-76
2022/04/07 00:21:38;;;;;;;32.65;3.75;;;;;;;7.81;100.00;97715.91;6253185;23;20058;-76
2022/04/07 00:24:11;;;;;;;22.23;3.17;;;;;;;7.76;100.00;97707.88;6205612;23;20422;-77
2022/04/07 00:26:46;;;;;;;;;;;;;;;;;;;;;
2022/04/07 00:29:17;;;;;;;22.35;2.83;;;;;;;7.77;100.00;97738.59;6232938;22;20047;-79
2022/04/07 00:31:43;;;;;;;24.02;3.88;;;;;;;7.64;100.00;97688.63;6230552;23;20063;-80
2022/04/07 00:34:16;;;;;;;28.13;3.45;;;;;;;7.53;100.00;97649.22;6256865;23;20010;-79
2022/04/07 00:36:44;;;;;;;32.80;4.18;;;;;;;7.57;100.00;97650.22;6201229;23;20049;-80
2022/04/07 00:39:09;;;;;;;20.95;2.85;;;;;;;7.67;100.00;97666.25;6206040;23;20008;-80
2022/04/07 00:41:39;;;;;;;30.63;3.08;;;;;;;7.67;100.00;97658.09;6180813;23;20066;-80
2022/04/07 00:44:08;;;;;;;23.75;2.95;;;;;;;7.60;100.00;97649.56;6226717;23;20008;-80
2022/04/07 00:46:42;;;;;;;21.98;3.97;;;;;;;7.70;100.00;97665.63;6255866;23;20020;-81
2022/04/07 00:49:09;;;;;;;26.33;3.72;;;;;;;7.71;100.00;97661.78;6179960;23;20103;-81
2022/04/07 00:51:37;;;;;;;28.40;3.47;;;;;;;7.82;100.00;97651.41;6207735;23;20004;-80
2022/04/07 00:54:03;;;;;;;18.85;2.45;;;;;;;7.71;100.00;97629.13;6231959;23;20423;-80
2022/04/07 00:56:30;;;;;;;32.80;2.95;;;;;;;7.68;100.00;97638.72;6205200;23;20031;-80
2022/04/07 00:58:56;;;;;;;22.20;3.47;;;;;;;7.66;100.00;97632.00;6208122;23;20034;-79
2022/04/07 01:01:24;;;;;;;30.58;3.90;;;;;;;7.61;100.00;97619.34;6213058;23;20028;-80
2022/04/07 01:03:50;;;;;;;14.82;1.95;;;;;;;7.70;100.00;97641.13;6216466;22;20004;-80
2022/04/07 01:06:19;;;;;;;14.45;1.45;;;;;;;7.43;100.00;97599.47;6217169;23;20027;-82
2022/04/07 01:08:44;;;;;;;6.72;1.30;;;;;;;7.46;100.00;97653.22;6242479;23;20027;-80
2022/04/07 01:11:10;;;;;;;8.27;1.42;;;;;;;7.31;100.00;97659.81;6193637;23;20008;-80
2022/04/07 01:13:45;;;;;;;7.13;1.35;;;;;;;7.11;100.00;97634.00;6236930;23;20022;-82
2022/04/07 01:16:13;;;;;;;4.00;1.05;;;;;;;7.05;100.00;97627.06;6237180;23;20004;-80
2022/04/07 01:18:47;;;;;;;4.22;1.08;;;;;;;6.96;100.00;97621.59;6234560;23;20004;-79
2022/04/07 01:21:22;;;;;;;1.73;0.50;;;;;;;6.89;100.00;97613.09;6208926;23;20031;-80
2022/04/07 01:24:09;;;;;;;5.85;0.80;;;;;;;6.95;100.00;97627.34;6259050;23;20108;-76
2022/04/07 01:26:43;;;;;;;1.60;0.45;;;;;;;6.85;100.00;97608.56;6229929;23;20008;-77
2022/04/07 01:29:11;;;;;;;5.68;1.17;;;;;;;6.94;100.00;97617.59;6227368;23;20481;-77
2022/04/07 01:31:38;;;;;;;7.28;0.95;;;;;;;6.98;100.00;97613.16;6230530;23;20019;-78
2022/04/07 01:34:07;;;;;;;7.72;1.55;;;;;;;7.02;100.00;97603.25;6226841;23;20008;-77
2022/04/07 01:36:37;;;;;;;12.02;1.75;;;;;;;7.01;100.00;97607.09;6228950;23;20058;-78
2022/04/07 01:39:07;;;;;;;5.53;0.98;;;;;;;6.93;100.00;97594.25;6230440;23;20008;-76
2022/04/07 01:41:50;;;;;;;7.53;0.93;;;;;;;6.94;100.00;97595.88;6220734;23;20757;-75
2022/04/07 01:44:17;;;;;;;5.35;1.65;;;;;;;6.78;100.00;97596.25;6169552;23;20016;-76
2022/04/07 01:46:43;;;;;;;7.95;1.10;;;;;;;6.82;100.00;97583.66;6222647;23;20008;-76
2022/04/07 01:49:09;;;;;;;5.45;1.00;;;;;;;6.78;100.00;97588.09;6222914;23;20043;-75
2022/04/07 01:51:37;;;;;;;3.05;0.80;;;;;;;6.70;100.00;97582.59;6196069;23;20019;-76
2022/04/07 01:54:11;;;;;;;13.15;0.98;;;;;;;6.71;100.00;97597.81;6222534;23;20004;-76
2022/04/07 01:56:56;;;;;;;15.00;1.25;;;;;;;6.64;100.00;97595.50;6196717;23;20009;-76
2022/04/07 01:59:33;;;;;;;;;;;;;;;;;;;;;
2022/04/07 02:02:02;;;;;;;7.20;1.00;;;;;;;6.45;100.00;97569.38;6200250;23;20394;-75
2022/04/07 02:04:27;;;;;;;14.05;1.10;;;;;;;6.42;100.00;97569.97;6169113;23;20012;-74
2022/04/07 02:06:53;;;;;;;6.75;0.90;;;;;;;6.53;100.00;97583.31;6169458;23;20046;-75
2022/04/07 02:09:28;;;;;;;2.13;0.60;;;;;;;6.45;100.00;97568.53;6196362;23;20087;-74
2022/04/07 02:11:56;;;;;;;11.52;1.17;;;;;;;6.52;100.00;97590.63;6196050;23;20013;-74
2022/04/07 02:14:26;;;;;;;5.55;1.42;;;;;;;6.25;100.00;97564.41;6197123;23;20019;-77
2022/04/07 02:16:52;;;;;;;6.22;1.08;;;;;;;6.49;100.00;97582.31;6198579;23;20015;-79
2022/04/07 02:19:24;;;;;;;5.13;1.13;;;;;;;6.45;100.00;97585.66;6213828;23;20000;-78
2022/04/07 02:22:15;;;;;;;2.40;1.08;;;;;;;6.16;100.00;97526.34;6230178;23;20024;-77
2022/04/07 02:24:43;;;;;;;7.28;1.00;;;;;;;6.14;100.00;97527.78;6230415;23;20031;-78
2022/04/07 02:27:09;;;;;;;9.65;1.25;;;;;;;6.22;100.00;97543.31;6228778;23;20008;-77
2022/04/07 02:29:37;;;;;;;10.73;1.42;;;;;;;6.25;100.00;97558.97;6252632;22;20080;-78
2022/04/07 02:39:01;;;;;;;;;;;;;;;;;;;;;
2022/04/07 02:41:31;;;;;;;6.85;0.82;;;;;;;6.07;100.00;97531.69;6253173;23;20032;-74
2022/04/07 02:44:04;;;;;;;6.70;1.17;;;;;;;6.15;100.00;97532.09;6228803;23;20011;-75
2022/04/07 02:46:29;;;;;;;11.23;1.33;;;;;;;6.32;100.00;97581.06;6201984;23;20478;-75
2022/04/07 02:48:54;;;;;;;4.95;0.80;;;;;;;6.15;100.00;97559.22;6252812;23;20147;-79
2022/04/07 02:51:20;;;;;;;9.25;1.42;;;;;;;6.18;100.00;97558.63;6204479;23;20279;-80
2022/04/07 02:54:23;;;;;;;11.02;1.92;;;;;;;6.26;100.00;97566.84;6184916;23;20023;-81
2022/04/07 02:57:06;;;;;;;5.03;0.90;;;;;;;6.04;100.00;97526.91;6241289;22;20004;-79
2022/04/07 02:59:40;;;;;;;7.80;1.23;;;;;;;5.95;100.00;97507.81;6240634;23;20059;-77
2022/04/07 03:02:19;;;;;;;;;;;;;;;;;;;;;
2022/04/07 03:04:44;;;;;;;7.60;1.48;;;;;;;6.00;100.00;97514.25;6267772;23;20000;-78
2022/04/07 03:07:10;;;;;;;5.70;1.10;;;;;;;5.93;100.00;97503.81;6236431;23;20019;-79
2022/04/07 03:09:45;;;;;;;4.38;0.98;;;;;;;6.00;100.00;97497.97;6210081;23;20004;-78
2022/04/07 03:12:13;;;;;;;6.40;0.80;;;;;;;5.82;100.00;97481.53;6236174;23;20027;-79
2022/04/07 03:14:41;;;;;;;8.25;1.13;;;;;;;5.88;100.00;97496.56;6265191;23;20075;-80
2022/04/07 03:17:06;;;;;;;3.90;0.90;;;;;;;5.68;100.00;97480.78;6236468;23;20055;-79
2022/04/07 03:19:32;;;;;;;10.13;0.90;;;;;;;5.67;100.00;97469.13;6230299;23;20426;-80
2022/04/07 03:22:00;;;;;;;3.67;0.68;;;;;;;5.87;100.00;97491.47;6230194;23;20011;-78
2022/04/07 03:24:29;;;;;;;7.07;1.10;;;;;;;5.59;100.00;97440.03;6228620;23;20012;-78
2022/04/07 03:27:07;;;;;;;12.20;1.33;;;;;;;5.53;100.00;97441.28;6202950;23;20015;-78
2022/04/07 03:29:44;;;;;;;;;;;;;;;;;;;;;
2022/04/07 03:32:10;;;;;;;5.03;1.38;;;;;;;5.40;100.00;97438.31;6208774;23;20447;-78
2022/04/07 03:34:44;;;;;;;7.38;1.70;;;;;;;5.67;100.00;97471.84;6227084;23;20016;-77
2022/04/07 03:37:10;;;;;;;;;;;;;;;5.66;100.00;97483.78;6228505;23;20012;-78
2022/04/07 03:39:37;;;;;;;6.68;0.85;;;;;;;5.55;100.00;97460.75;6202028;23;20235;-75
2022/04/07 03:42:07;;;;;;;6.13;1.02;;;;;;;5.42;100.00;97465.88;6205908;23;20016;-78
2022/04/07 03:44:33;;;;;;;2.00;0.85;;;;;;;5.25;100.00;97435.91;6202889;23;20008;-77
2022/04/07 03:46:59;;;;;;;5.15;0.85;;;;;;;5.45;100.00;97460.94;6230333;23;20077;-76
2022/04/07 03:49:26;;;;;;;3.55;0.75;;;;;;;5.28;100.00;97446.16;6228934;23;20011;-77
2022/04/07 03:51:52;;;;;;;9.73;1.45;;;;;;;5.39;100.00;97447.53;6254057;23;20023;-78
2022/04/07 03:54:18;;;;;;;10.23;1.05;;;;;;;5.22;100.00;97425.69;6230489;23;20019;-76
2022/04/07 03:56:44;;;;;;;6.07;0.90;;;;;;;5.20;100.00;97446.88;6228271;23;20015;-74
2022/04/07 03:59:09;;;;;;;6.00;0.80;;;;;;;5.15;100.00;97474.84;6200702;23;20016;-74
2022/04/07 04:01:35;;;;;;;13.05;2.72;;;;;;;5.11;100.00;97456.81;6224597;23;20051;-74
2022/04/07 04:04:01;;;;;;;10.48;1.02;;;;;;;5.05;100.00;97470.47;6230022;23;20008;-75
2022/04/07 04:06:27;;;;;;;5.50;0.73;;;;;;;5.03;100.00;97467.25;6201942;23;20463;-75
2022/04/07 04:08:52;;;;;;;11.13;2.15;;;;;;;4.95;100.00;97459.84;6227324;23;20004;-75
2022/04/07 04:11:18;;;;;;;8.05;1.45;;;;;;;4.97;100.00;97457.63;6201245;23;20004;-75
2022/04/07 04:13:45;;;;;;;7.47;1.30;;;;;;;4.92;100.00;97455.03;6227278;23;20016;-75
2022/04/07 04:16:11;;;;;;;4.80;1.00;;;;;;;4.90;100.00;97457.22;6228877;23;20007;-75
2022/04/07 04:18:36;;;;;;;7.65;1.30;;;;;;;4.85;100.00;97460.84;6229340;23;20008;-74
2022/04/07 04:21:02;;;;;;;9.55;0.95;;;;;;;4.80;100.00;97465.53;6202138;23;20035;-74
2022/04/07 04:23:27;;;;;;;12.60;1.30;;;;;;;4.75;100.00;97490.81;6201140;23;20549;-75
2022/04/07 04:25:52;;;;;;;11.18;2.60;;;;;;;4.66;100.00;97479.88;6204527;23;20008;-75
2022/04/07 04:28:18;;;;;;;17.98;1.60;;;;;;;4.64;100.00;97460.41;6227514;23;20004;-75
2022/04/07 04:30:43;;;;;;;9.55;1.65;;;;;;;4.60;100.00;97454.00;6227842;23;20076;-75
2022/04/07 04:33:09;;;;;;;12.48;1.55;;;;;;;4.53;100.00;97464.44;6254990;23;20154;-75
2022/04/07 04:35:35;;;;;;;14.80;1.17;;;;;;;4.53;100.00;97475.25;6226309;23;20035;-75
2022/04/07 04:38:00;;;;;;;15.63;1.52;;;;;;;4.43;100.00;97459.19;6204921;23;20012;-76
2022/04/07 04:40:25;;;;;;;5.90;1.02;;;;;;;4.48;100.00;97467.22;6204202;23;20008;-75
2022/04/07 04:42:51;;;;;;;7.03;1.33;;;;;;;4.46;100.00;97470.22;6230752;23;20004;-74
2022/04/07 04:45:16;;;;;;;18.45;1.45;;;;;;;4.49;100.00;97469.63;6254470;23;20004;-74
2022/04/07 04:47:42;;;;;;;10.60;1.48;;;;;;;4.49;100.00;97458.78;6229380;23;20038;-74
2022/04/07 04:50:08;;;;;;;10.10;1.13;;;;;;;4.36;100.00;97454.97;6228145;23;20320;-75
2022/04/07 04:52:36;;;;;;;16.77;1.45;;;;;;;4.38;100.00;97462.81;6228114;23;20004;-76
2022/04/07 04:55:01;;;;;;;5.35;1.05;;;;;;;4.45;100.00;97481.34;6204094;23;20111;-75
2022/04/07 04:57:27;;;;;;;6.57;1.10;;;;;;;4.44;100.00;97485.16;6203645;23;20016;-74
2022/04/07 04:59:53;;;;;;;13.40;1.40;;;;;;;4.41;100.00;97466.81;6255753;23;20005;-76
2022/04/07 05:02:18;;;;;;;10.00;1.90;;;;;;;4.47;100.00;97503.50;6202848;23;20020;-73
2022/04/07 05:04:44;;;;;;;18.23;1.85;;;;;;;4.63;100.00;97498.59;6202032;23;20390;-73
2022/04/07 05:07:09;;;;;;;12.20;1.67;;;;;;;4.61;100.00;97498.13;6227478;23;20197;-73
2022/04/07 05:09:34;;;;;;;6.95;1.45;;;;;;;4.49;100.00;97487.78;6202712;23;20004;-73
2022/04/07 05:12:00;;;;;;;11.60;1.02;;;;;;;4.48;100.00;97488.88;6254994;23;20082;-73
2022/04/07 05:14:26;;;;;;;8.65;1.27;;;;;;;4.48;100.00;97486.97;6224879;23;20004;-73
2022/04/07 05:16:51;;;;;;;11.48;1.73;;;;;;;4.61;100.00;97496.19;6202844;23;20012;-74
2022/04/07 05:19:16;;;;;;;18.10;1.75;;;;;;;4.68;100.00;97493.13;6228182;23;20015;-74
2022/04/07 05:21:42;;;;;;;9.18;1.58;;;;;;;4.68;100.00;97487.69;6228450;23;20031;-76
2022/04/07 05:24:07;;;;;;;15.43;1.70;;;;;;;4.41;100.00;97474.91;6228544;23;20008;-76
2022/04/07 05:26:33;;;;;;;15.30;1.52;;;;;;;4.56;100.00;97501.72;6225350;23;20019;-75
2022/04/07 05:28:58;;;;;;;15.57;1.73;;;;;;;4.54;100.00;97503.91;6204739;23;20012;-75
2022/04/07 05:31:23;;;;;;;16.08;2.17;;;;;;;4.48;100.00;97492.41;6222667;23;20021;-75
2022/04/07 05:33:49;;;;;;;11.45;1.90;;;;;;;4.44;100.00;97488.66;6172315;23;20487;-75
2022/04/07 05:36:14;;;;;;;8.57;1.48;;;;;;;4.45;100.00;97492.16;6197960;23;20412;-76
2022/04/07 05:38:40;;;;;;;16.80;1.60;;;;;;;4.45;100.00;97500.28;6195677;23;20009;-75
2022/04/07 05:41:05;;;;;;;22.10;2.50;;;;;;;4.47;100.00;97498.09;6195565;23;20481;-75
2022/04/07 05:43:31;;;;;;;11.48;1.45;;;;;;;4.46;100.00;97507.31;6172486;23;20005;-75
2022/04/07 05:45:56;;;;;;;16.73;1.75;;;;;;;4.49;100.00;97517.53;6223858;23;20000;-74
2022/04/07 05:48:22;;;;;;;15.25;2.65;;;;;;;4.49;100.00;97512.13;6223747;23;20000;-76
2022/04/07 05:50:47;;;;;;;26.10;2.78;;;;;;;4.48;100.00;97515.94;6226442;23;20011;-77
2022/04/07 05:53:12;;;;;;;14.38;1.92;;;;;;;4.50;100.00;97525.34;6223310;23;20008;-75
2022/04/07 05:55:38;;;;;;;19.00;2.42;;;;;;;4.58;100.00;97536.59;6170843;23;20012;-75
2022/04/07 05:58:05;;;;;;;17.02;2.63;;;;;;;4.69;100.00;97538.84;6197029;23;20043;-74
2022/04/07 06:00:31;;;;;;;13.65;1.95;;;;;;;4.69;100.00;97541.53;6221889;23;20419;-75
2022/04/07 06:02:57;;;;;;;17.70;1.83;;;;;;;4.76;100.00;97543.03;6171576;23;20015;-74
2022/04/07 06:05:22;;;;;;;21.50;2.72;;;;;;;4.89;100.00;97553.09;6224070;23;20005;-74
2022/04/07 06:07:48;;;;;;;18.33;2.78;;;;;;;5.02;100.00;97563.16;6196300;23;20079;-77
2022/04/07 06:10:29;;;;;;;16.73;1.77;;;;;;;5.07;100.00;97544.09;6198615;23;20001;-77
2022/04/07 06:12:55;;;;;;;20.30;2.45;;;;;;;5.24;100.00;97562.47;6224297;23;20005;-74
2022/04/07 06:15:20;;;;;;;10.10;1.88;;;;;;;5.29;100.00;97564.28;6197244;23;20031;-75
2022/04/07 06:17:56;;;;;;;14.65;1.73;;;;;;;5.33;100.00;97573.41;6197688;23;20004;-76
2022/04/07 06:20:22;;;;;;;22.83;2.05;;;;;;;5.40;100.00;97573.81;6195733;23;20019;-73
2022/04/07 06:22:56;;;;;;;11.13;1.77;;;;;;;5.47;100.00;97583.44;6170249;23;20005;-74
2022/04/07 06:26:35;;;;;;;13.98;1.92;;;;;;;5.56;100.00;97568.88;6222992;23;20004;-74
2022/04/07 06:32:59;;;;;;;;;;;;;;;;;;;;;
2022/04/07 06:35:25;;;;;;;28.38;2.70;;;;;;;5.65;100.00;97582.53;6282838;22;20038;-73
2022/04/07 06:37:58;;;;;;;12.40;1.98;;;;;;;5.69;100.00;97578.06;6283881;22;20011;-71
2022/04/07 06:40:30;;;;;;;14.40;2.53;;;;;;;5.48;100.00;97566.88;6255290;22;20090;-73
2022/04/07 06:42:57;;;;;;;23.23;2.03;;;;;;;5.52;100.00;97580.59;6278686;22;20011;-73
2022/04/07 06:45:23;;;;;;;19.73;2.08;;;;;;;5.46;100.00;97579.09;6230585;22;20477;-74
2022/04/07 06:47:49;;;;;;;20.98;1.92;;;;;;;5.45;100.00;97585.63;6227813;22;20089;-73
2022/04/07 06:50:28;;;;;;;23.65;2.40;;;;;;;5.52;100.00;97583.31;6282708;22;20036;-72
2022/04/07 06:52:55;;;;;;;18.83;2.88;;;;;;;5.56;100.00;97581.63;6281216;22;20019;-74
2022/04/07 06:55:21;;;;;;;10.27;2.20;;;;;;;5.66;100.00;97581.41;6254888;22;20007;-73
2022/04/07 06:58:03;;;;;;;16.15;2.20;;;;;;;5.79;100.00;97579.00;6281273;22;20019;-77
2022/04/07 07:00:34;;;;;;;13.57;1.73;;;;;;;6.00;100.00;97601.06;6254073;22;20003;-74
2022/04/07 07:03:02;;;;;;;20.65;3.97;;;;;;;6.07;99.09;97620.44;6254626;22;20322;-74
2022/04/07 07:05:30;;;;;;;15.50;2.35;;;;;;;5.98;100.00;97587.81;6256474;22;20008;-72
2022/04/07 07:08:17;;;;;;;16.60;2.80;;;;;;;6.06;99.86;97595.22;6254530;22;20525;-73
2022/04/07 07:10:45;;;;;;;18.52;2.63;;;;;;;6.18;96.79;97602.03;6255105;22;20000;-74
2022/04/07 07:13:21;;;;;;;17.42;2.28;;;;;;;6.29;97.87;97614.25;6252230;22;20038;-74
2022/04/07 07:15:57;;;;;;;15.05;1.90;;;;;;;6.15;97.17;97608.06;6248615;22;20072;-73
2022/04/07 07:18:25;;;;;;;20.90;2.90;;;;;;;6.20;96.47;97599.81;6255111;22;20008;-73
2022/04/07 07:21:18;;;;;;;21.73;2.13;;;;;;;6.33;95.81;97601.69;6253137;22;20271;-73
2022/04/07 07:23:45;;;;;;;11.65;1.63;;;;;;;6.45;97.92;97620.94;6278167;22;20057;-73
2022/04/07 07:26:17;;;;;;;14.43;2.33;;;;;;;6.53;97.00;97629.47;6253983;22;20008;-72
2022/04/07 07:28:42;;;;;;;18.52;2.55;;;;;;;6.58;96.69;97638.28;6268672;22;20019;-73
2022/04/07 07:31:10;;;;;;;20.52;2.05;;;;;;;6.73;97.86;97623.53;6240489;22;20004;-74
2022/04/07 07:33:35;;;;;;;16.98;2.05;;;;;;;6.94;98.22;97639.34;6218256;22;20023;-71
2022/04/07 07:36:01;;;;;;;11.05;1.90;;;;;;;7.29;95.89;97650.41;6238278;22;20012;-72
2022/04/07 07:38:26;;;;;;;12.77;1.80;;;;;;;7.30;94.25;97674.56;6216368;22;20012;-74
2022/04/07 07:40:51;;;;;;;17.45;2.47;;;;;;;7.18;92.38;97644.41;6232068;22;20338;-72
2022/04/07 07:43:17;;;;;;;21.35;2.35;;;;;;;7.24;92.12;97669.56;6232236;22;20064;-72
2022/04/07 07:45:43;;;;;;;22.55;2.17;;;;;;;7.57;95.27;97682.84;6256304;22;20004;-72
2022/04/07 07:48:08;;;;;;;22.80;2.80;;;;;;;7.66;93.26;97654.53;6255628;22;20076;-72
2022/04/07 07:50:33;;;;;;;12.65;1.70;;;;;;;7.72;91.25;97668.81;6282847;22;20011;-72
2022/04/07 07:52:59;;;;;;;20.42;3.13;;;;;;;7.90;92.71;97685.19;6280693;22;20034;-74
2022/04/07 07:55:25;;;;;;;16.45;2.30;;;;;;;7.98;89.49;97676.25;6284724;22;20011;-74
2022/04/07 07:57:50;;;;;;;15.40;2.35;;;;;;;7.84;89.85;97676.38;6254299;22;20004;-73
2022/04/07 08:00:17;;;;;;;17.73;2.47;;;;;;;7.68;90.21;97665.94;6285004;22;20012;-74
2022/04/07 08:02:43;;;;;;;24.02;2.75;;;;;;;7.80;89.56;97692.53;6284823;22;20004;-74
2022/04/07 08:05:09;;;;;;;12.57;2.08;;;;;;;7.96;90.77;97694.84;6284678;22;20034;-73
2022/04/07 08:07:40;;;;;;;16.65;2.30;;;;;;;8.33;90.12;97698.13;6258759;22;20111;-74
2022/04/07 08:10:06;;;;;;;18.48;1.75;;;;;;;8.23;88.04;97710.09;6257131;22;20077;-73
2022/04/07 08:12:33;;;;;;;18.27;2.47;;;;;;;8.17;86.56;97701.28;6259183;22;20107;-74
2022/04/07 08:14:59;;;;;;;19.85;2.58;;;;;;;8.35;87.53;97702.13;6206788;22;20011;-74
2022/04/07 08:17:24;;;;;;;21.05;2.70;;;;;;;8.43;88.20;97697.81;6232237;22;20442;-73
2022/04/07 08:19:49;;;;;;;26.73;4.18;;;;;;;8.24;82.71;97689.16;6258716;22;20007;-75
2022/04/07 08:22:15;;;;;;;15.55;2.33;;;;;;;8.35;81.90;97720.38;6231213;22;20311;-75
2022/04/07 08:24:40;;;;;;;21.70;2.03;;;;;;;9.43;82.95;97709.66;6257028;22;20238;-76
2022/04/07 08:27:06;;;;;;;11.73;1.75;;;;;;;10.24;74.21;97728.91;6258391;22;20026;-75
2022/04/07 08:29:32;;;;;;;19.75;2.25;;;;;;;9.65;76.35;97718.75;6258640;22;20023;-75
2022/04/07 08:32:01;;;;;;;26.13;2.95;;;;;;;9.18;81.74;97738.56;6258033;22;20067;-73
2022/04/07 08:34:27;;;;;;;25.17;2.22;;;;;;;9.37;83.12;97734.69;6259082;22;20007;-74
2022/04/07 08:36:54;;;;;;;23.25;2.53;;;;;;;9.67;80.13;97745.72;6258010;22;20061;-73
2022/04/07 08:39:22;;;;;;;21.27;2.42;;;;;;;9.96;79.31;97786.72;6232851;22;20008;-74
2022/04/07 08:41:53;;;;;;;17.27;2.40;;;;;;;10.10;75.69;97756.47;6287373;22;20019;-73
2022/04/07 08:44:18;;;;;;;18.73;2.40;;;;;;;9.85;75.87;97728.13;6286448;22;20012;-73
2022/04/07 08:46:56;;;;;;;13.80;1.70;;;;;;;9.42;79.49;97770.00;6234249;22;20079;-73
2022/04/07 08:49:26;;;;;;;16.30;2.45;;;;;;;8.96;79.19;97785.88;6260225;22;20000;-74
2022/04/07 08:51:52;;;;;;;15.25;2.30;;;;;;;8.94;80.22;97770.97;6259769;22;20003;-74
2022/04/07 08:54:19;;;;;;;19.77;2.60;;;;;;;9.07;79.23;97759.91;6285226;22;20023;-74
2022/04/07 08:56:45;;;;;;;22.75;3.13;;;;;;;9.09;78.67;97789.56;6258359;22;20037;-74
2022/04/07 08:59:11;;;;;;;21.92;2.13;;;;;;;8.94;78.11;97784.59;6258449;22;20073;-74
2022/04/07 09:01:37;;;;;;;17.92;2.72;;;;;;;11.13;77.09;97768.25;6283046;22;20007;-73
2022/04/07 09:04:02;;;;;;;16.65;2.88;;;;;;;13.31;67.47;97816.06;6258039;22;20015;-72
2022/04/07 09:06:29;;;;;;;15.52;3.15;;;;;;;14.27;61.32;97795.91;6208077;22;20007;-73
2022/04/07 09:08:55;;;;;;;21.95;2.58;;;;;;;12.54;64.77;97812.16;6286598;22;20025;-75
2022/04/07 09:11:22;;;;;;;13.57;2.30;;;;;;;12.78;67.96;97796.88;6286623;22;20008;-73
2022/04/07 09:13:50;;;;;;;20.33;2.90;;;;;;;12.70;68.01;97799.38;6258940;22;20311;-73
2022/04/07 09:16:18;;;;;;;16.92;2.80;;;;;;;12.63;69.57;97804.66;6258417;22;20099;-74
2022/04/07 09:18:48;;;;;;;13.45;1.83;;;;;;;13.07;64.05;97840.47;6258975;22;20052;-74
2022/04/07 09:21:27;;;;;;;18.60;3.17;;;;;;;12.53;63.87;97799.63;6257731;22;20418;-74
2022/04/07 09:23:57;;;;;;;31.80;3.15;;;;;;;11.54;68.51;97832.25;6258173;22;19999;-73
2022/04/07 09:26:27;;;;;;;30.05;2.97;;;;;;;12.75;71.53;97837.53;6285625;22;20000;-73
2022/04/07 09:29:00;;;;;;;12.88;2.53;;;;;;;14.40;58.74;97823.34;6232169;22;20015;-73
2022/04/07 09:31:25;;;;;;;19.55;2.55;;;;;;;14.20;66.45;97816.94;6256662;22;20008;-72
2022/04/07 09:34:01;;;;;;;15.50;2.83;;;;;;;15.44;61.98;97831.22;6256193;22;20084;-73
2022/04/07 09:36:27;;;;;;;12.55;1.90;;;;;;;15.09;56.71;97839.50;6285760;22;20000;-73
2022/04/07 09:38:54;;;;;;;15.38;1.98;;;;;;;13.37;59.46;97859.41;6283643;22;20859;-73
2022/04/07 09:41:20;;;;;;;15.90;2.85;;;;;;;12.64;66.52;97847.34;6285709;22;20014;-73
2022/04/07 09:44:00;;;;;;;21.13;2.53;;;;;;;13.21;64.39;97861.25;6285914;22;19999;-74
2022/04/07 09:46:51;;;;;;;24.10;2.35;;;;;;;13.20;64.44;97882.41;6284015;22;20003;-72
2022/04/07 09:49:17;;;;;;;14.23;2.10;;;;;;;12.56;64.48;97853.75;6259212;22;20000;-74
2022/04/07 09:51:51;;;;;;;19.77;3.17;;;;;;;14.26;62.71;97864.97;6283643;22;20063;-73
2022/04/07 09:54:17;;;;;;;16.55;2.13;;;;;;;14.36;59.38;97871.91;6256755;22;20011;-74
2022/04/07 09:56:47;;;;;;;16.65;2.53;;;;;;;14.74;58.19;97874.06;6258949;22;20007;-73
2022/04/07 09:59:22;;;;;;;13.60;2.05;;;;;;;15.90;55.24;97871.88;6261025;22;20689;-73
2022/04/07 10:01:50;;;;;;;14.02;2.40;;;;;;;15.83;57.04;97867.06;6286420;22;20083;-73
2022/04/07 10:04:16;;;;;;;16.17;2.92;;;;;;;14.49;58.42;97915.47;6258881;22;20180;-74
2022/04/07 10:06:43;;;;;;;17.85;2.50;;;;;;;13.05;61.28;97864.72;6285286;22;20007;-73
2022/04/07 10:09:11;;;;;;;18.08;2.60;;;;;;;14.10;61.57;97898.72;6285542;22;20022;-74
2022/04/07 10:11:39;;;;;;;16.75;2.30;;;;;;;14.56;57.49;97889.28;6258955;22;20004;-73
2022/04/07 10:14:04;;;;;;;17.73;2.17;;;;;;;13.79;57.51;97896.69;6232965;22;20007;-73
2022/04/07 10:16:32;;;;;;;16.63;3.03;;;;;;;14.45;61.29;97900.81;6232852;22;20008;-75
2022/04/07 10:19:35;;;;;;;12.70;2.10;;;;;;;16.61;58.95;97937.03;6233297;22;20019;-74
2022/04/07 10:22:10;;;;;;;28.98;3.63;;;;;;;14.22;60.64;97932.81;6285706;22;19999;-74
2022/04/07 10:24:41;;;;;;;11.30;2.10;;;;;;;14.74;58.38;97948.34;6285150;22;20080;-74
2022/04/07 10:27:09;;;;;;;13.23;2.70;;;;;;;13.73;60.64;97915.38;6286102;22;20079;-74
2022/04/07 10:29:34;;;;;;;19.58;2.28;;;;;;;14.22;58.35;97941.03;6233236;22;20099;-73
2022/04/07 10:32:12;;;;;;;19.35;2.92;;;;;;;15.18;59.34;97941.94;6231761;22;20018;-74
2022/04/07 10:34:58;;;;;;;15.20;2.20;;;;;;;16.02;55.64;97923.34;6257419;22;20011;-73
2022/04/07 10:37:44;;;;;;;11.80;2.45;;;;;;;16.03;50.27;97941.44;6256980;22;20011;-74
2022/04/07 10:40:34;;;;;;;15.88;2.17;;;;;;;15.16;51.42;97956.06;6261138;22;20027;-73
2022/04/07 10:43:25;;;;;;;15.00;2.47;;;;;;;16.00;49.66;97936.66;6257243;22;20011;-73
2022/04/07 10:46:05;;;;;;;15.25;3.22;;;;;;;16.02;53.72;97940.66;6257954;22;20026;-74
2022/04/07 10:48:46;;;;;;;10.15;3.20;;;;;;;17.20;47.84;97946.72;6257496;22;20011;-73
2022/04/07 10:51:14;;;;;;;10.02;2.13;;;;;;;17.52;40.14;97960.22;6232558;22;20000;-73
2022/04/07 10:54:00;;;;;;;8.98;1.67;;;;;;;17.57;42.54;97970.94;6230909;22;20011;-74
2022/04/07 10:56:38;;;;;;;14.30;2.50;;;;;;;17.57;44.57;97970.94;6257426;22;20011;-74
2022/04/07 10:59:41;;;;;;;8.40;1.65;;;;;;;18.17;44.80;97987.97;6257449;22;20004;-74
2022/04/07 11:02:12;;;;;;;18.45;1.80;;;;;;;18.46;41.94;97975.25;6284765;22;20026;-74
2022/04/07 11:04:42;;;;;;;10.93;2.13;;;;;;;17.54;41.30;97955.13;6257774;22;20011;-77
2022/04/07 11:07:07;;;;;;;19.48;2.47;;;;;;;18.24;40.55;97963.94;6255969;22;20007;-73
2022/04/07 11:09:42;;;;;;;8.07;1.30;;;;;;;18.77;43.27;97970.44;6281619;22;19996;-72
2022/04/07 11:12:11;;;;;;;14.93;1.80;;;;;;;19.67;37.29;97991.38;6280923;22;20058;-76
2022/04/07 11:14:37;;;;;;;9.52;1.67;;;;;;;19.82;35.89;97981.19;6232454;22;20008;-74
2022/04/07 11:17:07;;;;;;;7.25;1.30;;;;;;;20.27;38.08;97989.34;6259066;22;19999;-75
2022/04/07 11:20:16;;;;;;;7.93;1.73;;;;;;;20.96;40.74;97970.88;6257605;22;20010;-75
2022/04/07 11:22:53;;;;;;;8.73;1.88;;;;;;;21.34;36.82;97993.50;6281393;22;20414;-74
2022/04/07 11:25:42;;;;;;;10.45;2.05;;;;;;;19.87;37.05;98007.75;6283866;22;20006;-74
2022/04/07 11:28:25;;;;;;;12.82;2.45;;;;;;;19.64;39.69;97997.69;6241405;22;20027;-74
2022/04/07 11:31:04;;;;;;;14.80;2.10;;;;;;;20.20;39.73;97984.53;6282402;22;20008;-75
2022/04/07 11:33:37;;;;;;;12.20;1.85;;;;;;;19.56;39.95;98015.44;6285106;22;20311;-74
2022/04/07 11:36:02;;;;;;;11.95;2.03;;;;;;;19.86;35.47;98020.03;6282872;22;20279;-75
2022/04/07 11:38:30;;;;;;;10.52;2.65;;;;;;;19.48;37.80;97995.19;6258599;22;20008;-74
2022/04/07 11:41:00;;;;;;;6.43;1.42;;;;;;;20.62;35.39;98028.69;6286325;22;20008;-75
2022/04/07 11:43:25;;;;;;;10.00;2.15;;;;;;;20.50;35.21;98018.75;6260045;22;20071;-75
2022/04/07 11:45:52;;;;;;;12.43;2.88;;;;;;;20.61;34.99;98002.91;6234671;22;20004;-75
2022/04/07 11:48:20;;;;;;;18.02;2.17;;;;;;;20.53;34.00;98038.19;6258037;22;20003;-75
2022/04/07 11:50:46;;;;;;;11.82;1.88;;;;;;;20.80;35.31;98028.78;6259045;22;20095;-75
2022/04/07 11:53:12;;;;;;;12.95;2.08;;;;;;;21.20;34.64;98043.53;6255531;22;20011;-75
2022/04/07 11:55:38;;;;;;;13.20;1.80;;;;;;;21.24;32.97;98011.75;6258294;22;20045;-75
2022/04/07 12:04:59;;;;;;;13.88;1.80;;;;;;;19.23;38.83;98024.69;6286383;22;20231;-74
2022/04/07 12:17:36;;;;;;;12.93;2.03;;;;;;;22.33;31.10;98056.16;6232857;22;20350;-75
2022/04/07 12:20:04;;;;;;;11.98;2.58;;;;;;;22.61;31.46;98060.84;6287140;22;20027;-76